Time;durP1;ratioP1;P1;durP2;ratioP2;P2;SDS_P1;SDS_P2;PMS_P1;PMS_P2;Temp;Humidity;BMP_temperature;BMP_pressure;BME280_temperature;BME280_humidity;BME280_pressure;Samples;Min_cycle;Max_cycle;Signal;HPM_P1;HPM_P2
2022/12/07 00:00:02;;;;;;;91.45;45.08;;;;;;;;;;6244992;23;19996;-65
2022/12/07 00:02:31;;;;;;;79.80;41.58;;;;;;;;;;6244208;22;20474;-65
2022/12/07 00:04:57;;;;;;;77.85;42.30;;;;;;;;;;6244701;23;20384;-65
2022/12/07 00:07:23;;;;;;;76.03;40.10;;;;;;;;;;6244774;23;20012;-65
2022/12/07 00:09:49;;;;;;;89.03;43.67;;;;;;;;;;6244549;23;20008;-65
2022/12/07 00:12:15;;;;;;;91.97;48.58;;;;;;;;;;6244513;23;20453;-65
2022/12/07 00:14:42;;;;;;;86.57;44.67;;;;;;;;;;6244425;23;20088;-65
2022/12/07 00:17:08;;;;;;;103.00;50.60;;;;;;;;;;6244240;23;20009;-64
2022/12/07 00:19:34;;;;;;;138.35;64.03;;;;;;;;;;6244492;23;20079;-64
2022/12/07 00:22:00;;;;;;;113.75;55.50;;;;;;;;;;6244447;23;20087;-65
2022/12/07 00:24:26;;;;;;;90.70;44.13;;;;;;;;;;6244566;23;20000;-65
2022/12/07 00:26:52;;;;;;;89.45;44.75;;;;;;;;;;6244532;23;20469;-65
2022/12/07 00:29:19;;;;;;;107.95;49.13;;;;;;;;;;6244577;23;20008;-65
2022/12/07 00:31:46;;;;;;;98.35;46.03;;;;;;;;;;6243555;23;20004;-65
2022/12/07 00:34:13;;;;;;;77.20;38.97;;;;;;;;;;6244729;23;20046;-65
2022/12/07 00:36:39;;;;;;;84.45;41.75;;;;;;;;;;6244574;23;20346;-65
2022/12/07 00:39:06;;;;;;;88.30;42.70;;;;;;;;;;6244885;23;20054;-64
2022/12/07 00:41:32;;;;;;;75.05;34.97;;;;;;;;;;6244255;23;20004;-65
2022/12/07 00:43:58;;;;;;;72.13;37.92;;;;;;;;;;6244472;23;20012;-64
2022/12/07 00:46:24;;;;;;;110.10;51.35;;;;;;;;;;6244033;23;20071;-65
2022/12/07 00:48:51;;;;;;;106.20;51.30;;;;;;;;;;6244036;23;20004;-65
2022/12/07 00:51:19;;;;;;;111.38;52.13;;;;;;;;;;6244386;23;20035;-65
2022/12/07 00:53:45;;;;;;;109.03;52.45;;;;;;;;;;6243980;23;20003;-65
2022/12/07 00:56:13;;;;;;;65.47;34.03;;;;;;;;;;6244531;23;20016;-65
2022/12/07 00:58:39;;;;;;;51.63;26.58;;;;;;;;;;6244114;23;20011;-65
2022/12/07 01:01:06;;;;;;;61.00;31.33;;;;;;;;;;6244075;23;20011;-65
2022/12/07 01:03:32;;;;;;;85.38;40.15;;;;;;;;;;6244571;23;20103;-65
2022/12/07 01:05:59;;;;;;;65.22;32.17;;;;;;;;;;6244058;23;20004;-65
2022/12/07 01:08:26;;;;;;;51.90;26.55;;;;;;;;;;6244320;23;20430;-65
2022/12/07 01:10:59;;;;;;;64.50;32.47;;;;;;;;;;6244114;23;20000;-65
2022/12/07 01:13:25;;;;;;;86.00;41.35;;;;;;;;;;6244416;23;20020;-65
2022/12/07 01:15:52;;;;;;;100.70;45.92;;;;;;;;;;6243758;23;21224;-65
2022/12/07 01:18:18;;;;;;;98.15;47.78;;;;;;;;;;6244530;23;20011;-65
2022/12/07 01:20:44;;;;;;;75.85;42.88;;;;;;;;;;6244059;23;20035;-65
2022/12/07 01:23:10;;;;;;;70.20;38.80;;;;;;;;;;6244242;23;20315;-65
2022/12/07 01:25:36;;;;;;;74.63;37.72;;;;;;;;;;6244103;23;20027;-65
2022/12/07 01:28:02;;;;;;;67.28;35.22;;;;;;;;;;6244100;23;20031;-65
2022/12/07 01:30:28;;;;;;;66.82;36.60;;;;;;;;;;6244054;23;20034;-64
2022/12/07 01:32:55;;;;;;;57.15;33.88;;;;;;;;;;6244028;23;20011;-64
2022/12/07 01:35:21;;;;;;;69.25;34.70;;;;;;;;;;6242932;23;19996;-64
2022/12/07 01:37:47;;;;;;;114.10;50.28;;;;;;;;;;6243823;23;20004;-65
2022/12/07 01:40:13;;;;;;;114.78;48.83;;;;;;;;;;6244408;23;20067;-65
2022/12/07 01:42:39;;;;;;;91.68;44.55;;;;;;;;;;6243924;23;20008;-64
2022/12/07 01:45:18;;;;;;;84.43;40.90;;;;;;;;;;6243928;23;20027;-65
2022/12/07 01:47:46;;;;;;;77.82;38.50;;;;;;;;;;6244003;23;20019;-65
2022/12/07 01:50:12;;;;;;;75.45;37.90;;;;;;;;;;6244338;23;20007;-64
2022/12/07 01:52:38;;;;;;;76.45;36.00;;;;;;;;;;6243931;23;20454;-65
2022/12/07 01:55:06;;;;;;;68.45;35.60;;;;;;;;;;6244005;23;20001;-65
2022/12/07 01:57:33;;;;;;;75.20;36.75;;;;;;;;;;6243933;23;20004;-64
2022/12/07 02:00:00;;;;;;;69.95;35.10;;;;;;;;;;6244100;23;20439;-64
2022/12/07 02:02:42;;;;;;;62.70;32.40;;;;;;;;;;6245832;22;20011;-64
2022/12/07 02:05:08;;;;;;;59.83;31.83;;;;;;;;;;6245767;23;20012;-64
2022/12/07 02:07:35;;;;;;;55.75;30.60;;;;;;;;;;6246083;23;20008;-65
2022/12/07 02:10:37;;;;;;;61.28;33.10;;;;;;;;;;6245715;23;20015;-64
2022/12/07 02:13:05;;;;;;;61.78;31.90;;;;;;;;;;6122867;23;20024;-64
2022/12/07 02:15:52;;;;;;;53.38;28.80;;;;;;;;;;6123865;23;20009;-65
2022/12/07 02:18:36;;;;;;;57.30;30.65;;;;;;;;;;6123672;23;20013;-64
2022/12/07 02:21:26;;;;;;;61.13;29.00;;;;;;;;;;6123417;23;20010;-64
2022/12/07 02:23:52;;;;;;;54.63;27.15;;;;;;;;;;6123428;23;20071;-64
2022/12/07 02:26:19;;;;;;;49.20;27.13;;;;;;;;;;6123410;23;20045;-64
2022/12/07 02:28:57;;;;;;;52.00;25.95;;;;;;;;;;6123488;23;20018;-65
2022/12/07 02:31:23;;;;;;;46.97;26.67;;;;;;;;;;6123530;23;20014;-65
2022/12/07 02:33:58;;;;;;;49.42;26.27;;;;;;;;;;6123163;23;20002;-65
2022/12/07 02:36:29;;;;;;;47.78;24.42;;;;;;;;;;6123692;23;20033;-65
2022/12/07 02:38:58;;;;;;;40.13;23.42;;;;;;;;;;6123235;23;20085;-64
2022/12/07 02:41:28;;;;;;;44.60;23.77;;;;;;;;;;6123038;23;20025;-64
2022/12/07 02:43:55;;;;;;;47.17;24.67;;;;;;;;;;6122957;23;20516;-65
2022/12/07 02:46:23;;;;;;;48.17;23.60;;;;;;;;;;6151819;23;20028;-65
2022/12/07 02:48:50;;;;;;;48.83;24.52;;;;;;;;;;6245809;23;20346;-64
2022/12/07 02:51:18;;;;;;;46.40;23.27;;;;;;;;;;6245280;23;20004;-65
2022/12/07 02:53:44;;;;;;;38.50;22.13;;;;;;;;;;6244988;23;20000;-64
2022/12/07 02:56:29;;;;;;;44.97;22.05;;;;;;;;;;6245052;23;20079;-64
2022/12/07 02:59:14;;;;;;;46.05;22.38;;;;;;;;;;6245325;23;20054;-65
2022/12/07 03:01:43;;;;;;;41.70;21.45;;;;;;;;;;6245441;23;20031;-64
2022/12/07 03:04:15;;;;;;;42.67;21.55;;;;;;;;;;6245462;23;20000;-64
2022/12/07 03:06:46;;;;;;;45.13;21.65;;;;;;;;;;6245284;23;20012;-65
2022/12/07 03:09:22;;;;;;;42.28;20.40;;;;;;;;;;6245261;23;20058;-64
2022/12/07 03:11:55;;;;;;;41.60;20.83;;;;;;;;;;6244281;23;20031;-64
2022/12/07 03:14:21;;;;;;;;;;;;;;;;;;6245784;23;20004;-65
2022/12/07 03:16:53;;;;;;;42.30;20.77;;;;;;;;;;6245187;23;20088;-64
2022/12/07 03:19:21;;;;;;;45.00;24.23;;;;;;;;;;6245132;23;20438;-65
2022/12/07 03:21:50;;;;;;;46.78;24.58;;;;;;;;;;6245059;23;20008;-64
2022/12/07 03:24:19;;;;;;;47.70;24.00;;;;;;;;;;6244722;23;20071;-64
2022/12/07 03:27:01;;;;;;;45.13;23.00;;;;;;;;;;6245170;23;20000;-65
2022/12/07 03:29:34;;;;;;;40.65;20.92;;;;;;;;;;6245309;23;20019;-64
2022/12/07 03:32:07;;;;;;;49.42;22.65;;;;;;;;;;6244868;23;20011;-65
2022/12/07 03:34:37;;;;;;;40.70;21.70;;;;;;;;;;6244903;23;20000;-64
2022/12/07 03:37:09;;;;;;;42.65;22.55;;;;;;;;;;6244804;23;19996;-64
2022/12/07 03:40:02;;;;;;;37.60;20.50;;;;;;;;;;6244761;23;20008;-65
2022/12/07 03:42:28;;;;;;;40.05;20.55;;;;;;;;;;6123102;23;20017;-64
2022/12/07 03:44:55;;;;;;;40.58;20.80;;;;;;;;;;6122543;23;20125;-64
2022/12/07 03:47:30;;;;;;;38.03;20.85;;;;;;;;;;6122902;23;20013;-64
2022/12/07 03:50:02;;;;;;;41.00;20.33;;;;;;;;;;6122568;23;20013;-64
2022/12/07 03:52:31;;;;;;;34.63;19.60;;;;;;;;;;6122652;23;20440;-64
2022/12/07 03:55:00;;;;;;;34.30;19.23;;;;;;;;;;6122099;23;20022;-64
2022/12/07 03:57:28;;;;;;;40.45;20.98;;;;;;;;;;6122809;23;20010;-64
2022/12/07 03:59:55;;;;;;;36.30;18.20;;;;;;;;;;6120961;23;20463;-64
2022/12/07 04:02:22;;;;;;;35.33;19.40;;;;;;;;;;6121418;23;20017;-64
2022/12/07 04:04:48;;;;;;;38.17;21.80;;;;;;;;;;6121310;23;20013;-64
2022/12/07 04:07:14;;;;;;;36.28;19.60;;;;;;;;;;6121054;23;20022;-65
2022/12/07 04:09:40;;;;;;;38.10;19.20;;;;;;;;;;6120625;23;20034;-64
2022/12/07 04:12:07;;;;;;;43.28;20.95;;;;;;;;;;6120407;23;20014;-64
2022/12/07 04:14:33;;;;;;;42.22;20.17;;;;;;;;;;6121172;23;20388;-64
2022/12/07 04:16:59;;;;;;;39.85;19.73;;;;;;;;;;6120896;23;20009;-65
2022/12/07 04:19:27;;;;;;;33.83;19.08;;;;;;;;;;6192577;23;20004;-65
2022/12/07 04:21:54;;;;;;;37.17;19.85;;;;;;;;;;6243865;23;20031;-65
2022/12/07 04:24:20;;;;;;;40.05;20.55;;;;;;;;;;6242524;23;20000;-64
2022/12/07 04:26:46;;;;;;;40.90;20.52;;;;;;;;;;6244432;23;20378;-65
2022/12/07 04:29:13;;;;;;;41.55;20.33;;;;;;;;;;6244106;23;20035;-64
2022/12/07 04:31:39;;;;;;;37.45;20.70;;;;;;;;;;6245056;23;20015;-65
2022/12/07 04:34:06;;;;;;;44.33;21.73;;;;;;;;;;6244384;23;19996;-64
2022/12/07 04:36:32;;;;;;;38.10;20.42;;;;;;;;;;6244030;23;20001;-64
2022/12/07 04:38:59;;;;;;;40.13;20.00;;;;;;;;;;6243973;22;20396;-64
2022/12/07 04:41:29;;;;;;;34.53;19.20;;;;;;;;;;6244463;23;20351;-65
2022/12/07 04:43:55;;;;;;;34.55;18.88;;;;;;;;;;6244318;23;20000;-64
2022/12/07 04:46:22;;;;;;;35.70;19.77;;;;;;;;;;6244687;22;20004;-64
2022/12/07 04:48:48;;;;;;;36.85;19.65;;;;;;;;;;6244772;23;20090;-64
2022/12/07 04:51:16;;;;;;;35.60;19.27;;;;;;;;;;6242734;23;20016;-64
2022/12/07 04:53:42;;;;;;;40.97;20.02;;;;;;;;;;6243474;23;20329;-64
2022/12/07 04:56:08;;;;;;;36.60;19.25;;;;;;;;;;6243065;23;20012;-64
2022/12/07 04:58:34;;;;;;;40.85;19.90;;;;;;;;;;6243109;23;20434;-64
2022/12/07 05:01:00;;;;;;;38.65;20.25;;;;;;;;;;6242641;23;20074;-64
2022/12/07 05:03:26;;;;;;;41.08;20.90;;;;;;;;;;6243340;23;20024;-64
2022/12/07 05:05:52;;;;;;;41.47;22.23;;;;;;;;;;6243117;23;20312;-64
2022/12/07 05:08:18;;;;;;;34.95;18.88;;;;;;;;;;6243038;23;20011;-64
2022/12/07 05:10:45;;;;;;;43.10;20.00;;;;;;;;;;6243544;23;20103;-65
2022/12/07 05:13:11;;;;;;;40.03;20.42;;;;;;;;;;6242737;23;20066;-64
2022/12/07 05:15:37;;;;;;;43.58;19.27;;;;;;;;;;6243217;23;20001;-64
2022/12/07 05:18:03;;;;;;;41.03;21.58;;;;;;;;;;6243248;23;20000;-65
2022/12/07 05:20:29;;;;;;;42.83;22.70;;;;;;;;;;6242675;23;20435;-65
2022/12/07 05:22:55;;;;;;;39.10;20.08;;;;;;;;;;6243327;23;20038;-65
2022/12/07 05:25:21;;;;;;;36.55;18.55;;;;;;;;;;6243068;22;20014;-65
2022/12/07 05:27:47;;;;;;;42.47;22.02;;;;;;;;;;6244088;23;20381;-65
2022/12/07 05:30:14;;;;;;;37.83;20.80;;;;;;;;;;6243637;23;20119;-64
2022/12/07 05:32:40;;;;;;;40.08;22.35;;;;;;;;;;6244007;23;20350;-65
2022/12/07 05:35:06;;;;;;;40.83;20.90;;;;;;;;;;6244593;23;20005;-64
2022/12/07 05:37:33;;;;;;;44.00;19.80;;;;;;;;;;6246056;23;20011;-64
2022/12/07 05:39:59;;;;;;;39.30;20.15;;;;;;;;;;6245954;23;20004;-64
2022/12/07 05:42:25;;;;;;;38.47;19.23;;;;;;;;;;6245702;23;20008;-65
2022/12/07 05:44:51;;;;;;;38.47;19.50;;;;;;;;;;6246234;23;20004;-65
2022/12/07 05:47:17;;;;;;;38.08;19.85;;;;;;;;;;6246383;23;20320;-64
2022/12/07 05:49:43;;;;;;;41.10;19.90;;;;;;;;;;6246051;23;20343;-65
2022/12/07 05:52:09;;;;;;;38.88;19.55;;;;;;;;;;6244502;23;20004;-64
2022/12/07 05:54:35;;;;;;;38.20;19.70;;;;;;;;;;6243671;23;20008;-64
2022/12/07 05:57:02;;;;;;;43.00;20.20;;;;;;;;;;6244268;23;20004;-64
2022/12/07 05:59:28;;;;;;;35.88;18.75;;;;;;;;;;6243911;23;20023;-65
2022/12/07 06:01:59;;;;;;;36.97;19.13;;;;;;;;;;6244856;22;20004;-64
2022/12/07 06:04:26;;;;;;;36.85;19.45;;;;;;;;;;6243960;23;20004;-64
2022/12/07 06:06:52;;;;;;;41.67;20.95;;;;;;;;;;6244439;23;20512;-64
2022/12/07 06:09:19;;;;;;;40.17;18.40;;;;;;;;;;6244139;23;20003;-64
2022/12/07 06:14:30;;;;;;;33.38;18.77;;;;;;;;;;6245298;23;20015;-65
2022/12/07 06:16:57;;;;;;;35.53;19.58;;;;;;;;;;6245269;23;20016;-64
2022/12/07 06:19:23;;;;;;;44.53;22.65;;;;;;;;;;6243259;23;20000;-64
2022/12/07 06:21:49;;;;;;;41.72;20.27;;;;;;;;;;6244190;23;20000;-64
2022/12/07 06:24:15;;;;;;;42.20;21.00;;;;;;;;;;6244404;23;20037;-64
2022/12/07 06:26:42;;;;;;;39.05;20.10;;;;;;;;;;6243478;23;20080;-65
2022/12/07 06:29:08;;;;;;;42.63;21.58;;;;;;;;;;6244026;23;20035;-64
2022/12/07 06:31:35;;;;;;;44.03;23.80;;;;;;;;;;6241444;23;20008;-65
2022/12/07 06:34:03;;;;;;;41.92;22.70;;;;;;;;;;6243831;23;20063;-64
2022/12/07 06:36:29;;;;;;;44.10;23.17;;;;;;;;;;6244257;23;20002;-65
2022/12/07 06:38:55;;;;;;;44.40;23.30;;;;;;;;;;6244353;23;20054;-66
2022/12/07 06:41:22;;;;;;;42.50;20.92;;;;;;;;;;6245270;23;20003;-65
2022/12/07 06:43:48;;;;;;;39.22;20.60;;;;;;;;;;6246393;23;20079;-65
2022/12/07 06:46:15;;;;;;;35.92;19.88;;;;;;;;;;6245070;23;20385;-65
2022/12/07 06:48:41;;;;;;;34.05;19.48;;;;;;;;;;6244245;23;20438;-65
2022/12/07 06:51:07;;;;;;;41.40;21.05;;;;;;;;;;6244937;23;20004;-65
2022/12/07 06:53:34;;;;;;;44.47;23.05;;;;;;;;;;6245173;23;20011;-65
2022/12/07 06:56:00;;;;;;;42.90;22.75;;;;;;;;;;6245254;23;20007;-65
2022/12/07 06:58:26;;;;;;;45.80;24.05;;;;;;;;;;6244004;23;20008;-65
2022/12/07 07:00:52;;;;;;;45.53;23.67;;;;;;;;;;6244178;23;20062;-65
2022/12/07 07:03:18;;;;;;;46.33;24.35;;;;;;;;;;6244639;22;20004;-65
2022/12/07 07:05:45;;;;;;;44.65;23.80;;;;;;;;;;6245039;23;20011;-65
2022/12/07 07:08:11;;;;;;;44.88;24.05;;;;;;;;;;6245636;23;20410;-65
2022/12/07 07:10:37;;;;;;;49.15;25.95;;;;;;;;;;6244926;23;20004;-65
2022/12/07 07:13:04;;;;;;;49.22;23.17;;;;;;;;;;6244742;23;20040;-65
2022/12/07 07:15:30;;;;;;;49.25;24.52;;;;;;;;;;6244396;23;20008;-65
2022/12/07 07:17:56;;;;;;;43.35;24.15;;;;;;;;;;6244764;23;20405;-65
2022/12/07 07:20:22;;;;;;;47.22;25.10;;;;;;;;;;6244326;23;20007;-65
2022/12/07 07:22:49;;;;;;;48.55;24.92;;;;;;;;;;6244331;23;20004;-65
2022/12/07 07:25:15;;;;;;;51.42;26.63;;;;;;;;;;6244489;23;20129;-65
2022/12/07 07:27:42;;;;;;;52.88;24.65;;;;;;;;;;6243331;23;20064;-65
2022/12/07 07:30:08;;;;;;;42.47;22.75;;;;;;;;;;6244943;23;20028;-65
2022/12/07 07:32:34;;;;;;;54.67;26.30;;;;;;;;;;6241286;23;20034;-65
2022/12/07 07:35:00;;;;;;;98.90;38.05;;;;;;;;;;6243451;23;20008;-66
2022/12/07 07:37:27;;;;;;;97.80;41.20;;;;;;;;;;6243537;22;20075;-65
2022/12/07 07:39:53;;;;;;;111.13;44.28;;;;;;;;;;6243414;23;20046;-66
2022/12/07 07:42:19;;;;;;;110.57;44.20;;;;;;;;;;6242638;23;20012;-66
2022/12/07 07:44:46;;;;;;;107.78;45.58;;;;;;;;;;6240876;23;20008;-66
2022/12/07 07:47:12;;;;;;;96.65;39.08;;;;;;;;;;6239593;23;20036;-66
2022/12/07 07:49:38;;;;;;;89.30;35.65;;;;;;;;;;6238929;23;20023;-65
2022/12/07 07:52:05;;;;;;;78.13;33.55;;;;;;;;;;6239483;23;20008;-66
2022/12/07 07:54:32;;;;;;;56.88;27.02;;;;;;;;;;6239569;23;20075;-66
2022/12/07 07:56:58;;;;;;;48.95;24.10;;;;;;;;;;6239292;23;20075;-66
2022/12/07 07:59:25;;;;;;;52.13;26.60;;;;;;;;;;6238735;23;20071;-66
2022/12/07 08:01:51;;;;;;;55.33;25.95;;;;;;;;;;6238456;22;20008;-66
2022/12/07 08:04:17;;;;;;;49.67;24.98;;;;;;;;;;6239413;23;20008;-66
2022/12/07 08:06:43;;;;;;;46.17;24.02;;;;;;;;;;6237332;23;20460;-66
2022/12/07 08:09:10;;;;;;;50.25;23.17;;;;;;;;;;6238822;23;20000;-66
2022/12/07 08:11:37;;;;;;;43.72;22.45;;;;;;;;;;6239434;23;20065;-66
2022/12/07 08:14:03;;;;;;;47.33;22.35;;;;;;;;;;6238791;22;20020;-66
2022/12/07 08:16:29;;;;;;;47.40;23.20;;;;;;;;;;6239042;23;20007;-66
2022/12/07 08:18:56;;;;;;;44.20;22.77;;;;;;;;;;6239080;23;20049;-65
2022/12/07 08:21:22;;;;;;;49.42;23.05;;;;;;;;;;6239101;22;20004;-66
2022/12/07 08:23:48;;;;;;;41.90;22.17;;;;;;;;;;6238578;23;20306;-66
2022/12/07 08:26:15;;;;;;;53.53;25.65;;;;;;;;;;6239396;23;20008;-65
2022/12/07 08:28:42;;;;;;;47.20;24.83;;;;;;;;;;6238744;23;20330;-66
2022/12/07 08:31:10;;;;;;;54.10;25.13;;;;;;;;;;6238704;23;20022;-66
2022/12/07 08:33:37;;;;;;;41.53;22.33;;;;;;;;;;6239784;22;20102;-66
2022/12/07 08:36:08;;;;;;;43.58;22.83;;;;;;;;;;6239590;23;20016;-66
2022/12/07 08:38:38;;;;;;;41.70;22.13;;;;;;;;;;6239291;23;20027;-66
2022/12/07 08:41:04;;;;;;;44.75;23.33;;;;;;;;;;6238419;23;20376;-66
2022/12/07 08:43:30;;;;;;;43.80;22.77;;;;;;;;;;6239300;23;20007;-66
2022/12/07 08:46:23;;;;;;;49.10;25.63;;;;;;;;;;6239215;23;20124;-65
2022/12/07 08:48:52;;;;;;;48.17;24.13;;;;;;;;;;6233575;23;20070;-66
2022/12/07 08:51:18;;;;;;;45.70;23.50;;;;;;;;;;6239302;23;20242;-66
2022/12/07 08:53:45;;;;;;;48.78;24.10;;;;;;;;;;6239365;23;20004;-66
2022/12/07 08:56:11;;;;;;;70.50;32.53;;;;;;;;;;6238968;23;20007;-66
2022/12/07 08:58:38;;;;;;;54.58;29.85;;;;;;;;;;6239091;23;20008;-66
2022/12/07 09:01:05;;;;;;;56.28;28.33;;;;;;;;;;6239195;23;20079;-65
2022/12/07 09:03:31;;;;;;;49.65;24.25;;;;;;;;;;6239644;23;20008;-65
2022/12/07 09:05:58;;;;;;;43.30;23.35;;;;;;;;;;6239202;23;20469;-66
2022/12/07 09:08:26;;;;;;;55.42;25.13;;;;;;;;;;6239555;23;20000;-65
2022/12/07 09:10:52;;;;;;;61.22;29.23;;;;;;;;;;6241586;23;20382;-66
2022/12/07 09:13:19;;;;;;;54.30;27.10;;;;;;;;;;6240553;23;20008;-65
2022/12/07 09:15:45;;;;;;;58.17;28.17;;;;;;;;;;6241825;23;20008;-65
2022/12/07 09:18:11;;;;;;;51.85;25.50;;;;;;;;;;6241598;23;19996;-65
2022/12/07 09:20:37;;;;;;;54.20;25.70;;;;;;;;;;6241314;23;20070;-65
2022/12/07 09:23:05;;;;;;;45.78;24.10;;;;;;;;;;6240723;23;20030;-65
2022/12/07 09:25:31;;;;;;;50.55;25.00;;;;;;;;;;6242077;22;20338;-66
2022/12/07 09:27:58;;;;;;;46.58;25.55;;;;;;;;;;6241045;23;20012;-66
2022/12/07 09:30:24;;;;;;;49.38;26.30;;;;;;;;;;6241618;23;20036;-65
2022/12/07 09:32:51;;;;;;;53.03;26.48;;;;;;;;;;6241310;23;20034;-65
2022/12/07 09:35:17;;;;;;;53.33;26.75;;;;;;;;;;6239132;23;20077;-65
2022/12/07 09:37:43;;;;;;;52.13;26.10;;;;;;;;;;6240834;23;19996;-66
2022/12/07 09:40:09;;;;;;;50.88;25.33;;;;;;;;;;6240649;23;20008;-65
2022/12/07 09:42:39;;;;;;;56.90;26.38;;;;;;;;;;6240923;23;20078;-65
2022/12/07 09:45:06;;;;;;;48.30;23.85;;;;;;;;;;6240982;22;20009;-65
2022/12/07 09:47:33;;;;;;;46.30;23.95;;;;;;;;;;6241600;23;20071;-65
2022/12/07 09:50:08;;;;;;;52.08;25.42;;;;;;;;;;6240651;22;20012;-65
2022/12/07 09:52:34;;;;;;;53.80;25.10;;;;;;;;;;6241061;23;20427;-65
2022/12/07 09:55:00;;;;;;;52.42;27.70;;;;;;;;;;6240181;22;20438;-65
2022/12/07 09:57:31;;;;;;;51.83;26.15;;;;;;;;;;6240335;23;20469;-65
2022/12/07 10:00:01;;;;;;;49.42;24.15;;;;;;;;;;6240811;23;20533;-65
2022/12/07 10:02:38;;;;;;;48.83;22.90;;;;;;;;;;6240872;23;20011;-65
2022/12/07 10:05:06;;;;;;;42.28;20.77;;;;;;;;;;6240606;23;20427;-65
2022/12/07 10:07:32;;;;;;;44.40;22.35;;;;;;;;;;6241378;22;20350;-65
2022/12/07 10:09:58;;;;;;;43.13;23.58;;;;;;;;;;6240518;23;20091;-65
2022/12/07 10:12:24;;;;;;;52.13;23.50;;;;;;;;;;6239565;23;20012;-65
2022/12/07 10:15:02;;;;;;;41.90;22.88;;;;;;;;;;6240912;23;20004;-65
2022/12/07 10:17:30;;;;;;;47.83;23.73;;;;;;;;;;6241011;22;20089;-65
2022/12/07 10:20:13;;;;;;;47.03;23.58;;;;;;;;;;6240700;22;20004;-65
2022/12/07 10:22:39;;;;;;;38.03;21.15;;;;;;;;;;6240295;23;20005;-65
2022/12/07 10:25:09;;;;;;;38.22;21.52;;;;;;;;;;6240492;23;20000;-65
2022/12/07 10:27:36;;;;;;;42.58;23.00;;;;;;;;;;6240994;23;20158;-65
2022/12/07 10:30:07;;;;;;;43.05;22.15;;;;;;;;;;6240363;23;20004;-65
2022/12/07 10:32:35;;;;;;;41.55;23.20;;;;;;;;;;6240272;23;20004;-65
2022/12/07 10:35:20;;;;;;;39.15;20.92;;;;;;;;;;6240682;23;20000;-65
2022/12/07 10:37:46;;;;;;;40.58;21.67;;;;;;;;;;6240543;22;20004;-65
2022/12/07 10:40:35;;;;;;;40.75;21.60;;;;;;;;;;6239354;23;20338;-65
2022/12/07 10:43:14;;;;;;;46.85;22.95;;;;;;;;;;6225221;23;20012;-65
2022/12/07 10:46:07;;;;;;;41.90;22.48;;;;;;;;;;6240509;23;20026;-65
2022/12/07 10:48:33;;;;;;;44.63;23.45;;;;;;;;;;6235138;23;20012;-65
2022/12/07 10:50:59;;;;;;;44.63;23.55;;;;;;;;;;6239843;23;20004;-65
2022/12/07 10:53:28;;;;;;;48.40;25.52;;;;;;;;;;6239813;23;20039;-65
2022/12/07 10:56:17;;;;;;;49.88;26.10;;;;;;;;;;6239673;23;20000;-65
2022/12/07 10:58:49;;;;;;;52.13;27.08;;;;;;;;;;6240763;22;20089;-65
2022/12/07 11:01:24;;;;;;;63.80;28.60;;;;;;;;;;6239898;23;20023;-65
2022/12/07 11:03:50;;;;;;;55.13;27.63;;;;;;;;;;6240432;23;20319;-65
2022/12/07 11:06:31;;;;;;;50.13;25.48;;;;;;;;;;6240172;23;20007;-64
2022/12/07 11:08:59;;;;;;;42.35;23.90;;;;;;;;;;6241622;23;20012;-69
2022/12/07 11:11:31;;;;;;;44.65;24.30;;;;;;;;;;6243292;22;20054;-65
2022/12/07 11:14:05;;;;;;;42.83;21.35;;;;;;;;;;6244129;23;20035;-64
2022/12/07 11:16:40;;;;;;;37.20;20.02;;;;;;;;;;6244544;23;20419;-64
2022/12/07 11:19:15;;;;;;;33.95;18.25;;;;;;;;;;6244684;23;20438;-64
2022/12/07 11:21:48;;;;;;;38.13;19.92;;;;;;;;;;6244171;23;20011;-64
2022/12/07 11:24:16;;;;;;;37.33;21.25;;;;;;;;;;6243549;23;20008;-64
2022/12/07 11:26:43;;;;;;;40.22;21.63;;;;;;;;;;6243021;22;20035;-64
2022/12/07 11:29:09;;;;;;;35.10;18.85;;;;;;;;;;6242792;23;20461;-64
2022/12/07 11:31:35;;;;;;;35.30;19.25;;;;;;;;;;6242817;23;20048;-64
2022/12/07 11:34:08;;;;;;;37.70;19.08;;;;;;;;;;6243316;23;20035;-64
2022/12/07 11:36:38;;;;;;;35.13;19.23;;;;;;;;;;6243320;23;20011;-64
2022/12/07 11:39:08;;;;;;;35.42;19.15;;;;;;;;;;6243569;22;20001;-65
2022/12/07 11:41:40;;;;;;;36.83;20.60;;;;;;;;;;6243125;23;20354;-64
2022/12/07 11:44:08;;;;;;;36.35;19.50;;;;;;;;;;6243639;23;20011;-64
2022/12/07 11:46:51;;;;;;;36.25;18.60;;;;;;;;;;6243761;23;20231;-64
2022/12/07 11:49:27;;;;;;;40.10;19.27;;;;;;;;;;6243366;23;20015;-64
2022/12/07 11:51:55;;;;;;;34.17;17.55;;;;;;;;;;6242524;23;20008;-64
2022/12/07 11:54:27;;;;;;;34.05;18.70;;;;;;;;;;6243817;22;20034;-64
2022/12/07 11:56:56;;;;;;;32.83;19.77;;;;;;;;;;6242805;23;20032;-64
2022/12/07 11:59:22;;;;;;;35.05;18.13;;;;;;;;;;6242798;23;20023;-64
2022/12/07 12:01:56;;;;;;;32.10;18.58;;;;;;;;;;6242314;23;20012;-64
2022/12/07 12:04:28;;;;;;;35.10;19.33;;;;;;;;;;6243674;23;20035;-64
2022/12/07 12:06:54;;;;;;;33.22;18.23;;;;;;;;;;6242735;22;20011;-64
2022/12/07 12:09:26;;;;;;;34.17;18.63;;;;;;;;;;6243231;23;20311;-64
2022/12/07 12:12:07;;;;;;;33.65;19.00;;;;;;;;;;6241133;23;20012;-64
2022/12/07 12:14:52;;;;;;;29.90;17.20;;;;;;;;;;6243095;23;20008;-64
2022/12/07 12:17:36;;;;;;;29.90;15.85;;;;;;;;;;6242950;23;20506;-64
2022/12/07 12:20:21;;;;;;;27.42;15.80;;;;;;;;;;6242672;22;20035;-64
2022/12/07 12:22:57;;;;;;;33.83;16.88;;;;;;;;;;6241852;23;20012;-64
2022/12/07 12:25:25;;;;;;;31.33;17.25;;;;;;;;;;6242524;23;20035;-64
2022/12/07 12:27:52;;;;;;;26.83;16.67;;;;;;;;;;6242963;23;20311;-64
2022/12/07 12:30:35;;;;;;;24.60;14.07;;;;;;;;;;6243077;23;20012;-64
2022/12/07 12:33:03;;;;;;;25.92;14.30;;;;;;;;;;6241798;22;20360;-64
2022/12/07 12:35:31;;;;;;;23.98;13.18;;;;;;;;;;6242219;23;20057;-64
2022/12/07 12:38:16;;;;;;;21.58;13.05;;;;;;;;;;6241923;23;20012;-64
2022/12/07 12:40:43;;;;;;;24.80;14.55;;;;;;;;;;6240776;23;20336;-64
2022/12/07 12:43:28;;;;;;;21.88;13.57;;;;;;;;;;6240647;23;20016;-64
2022/12/07 12:46:14;;;;;;;27.85;13.15;;;;;;;;;;6240738;23;20004;-64
2022/12/07 12:48:40;;;;;;;28.83;14.77;;;;;;;;;;6241315;23;20445;-64
2022/12/07 12:51:36;;;;;;;25.48;13.63;;;;;;;;;;6239995;23;20486;-64
2022/12/07 12:54:06;;;;;;;21.50;13.85;;;;;;;;;;6119014;23;20033;-64
2022/12/07 12:56:52;;;;;;;21.50;13.90;;;;;;;;;;6119666;23;20005;-64
2022/12/07 12:59:26;;;;;;;23.25;13.70;;;;;;;;;;6120592;23;20014;-64
2022/12/07 13:01:55;;;;;;;23.45;13.27;;;;;;;;;;6119319;23;20010;-64
2022/12/07 13:04:21;;;;;;;17.52;10.65;;;;;;;;;;6118223;23;20436;-64
2022/12/07 13:06:47;;;;;;;22.27;11.55;;;;;;;;;;6113714;23;20073;-64
2022/12/07 13:09:45;;;;;;;20.00;10.85;;;;;;;;;;6115730;23;20041;-64
2022/12/07 13:12:16;;;;;;;15.90;8.55;;;;;;;;;;6056522;23;20019;-64
2022/12/07 13:14:44;;;;;;;16.17;9.38;;;;;;;;;;6057849;23;20010;-64
2022/12/07 13:17:10;;;;;;;18.67;10.07;;;;;;;;;;6057567;23;20372;-64
2022/12/07 13:19:42;;;;;;;18.67;11.00;;;;;;;;;;6033562;23;20094;-64
2022/12/07 13:22:28;;;;;;;18.75;11.80;;;;;;;;;;6057549;23;20480;-64
2022/12/07 13:24:56;;;;;;;22.42;11.85;;;;;;;;;;6043452;23;20569;-65
2022/12/07 13:27:23;;;;;;;19.45;11.77;;;;;;;;;;6057757;23;20497;-64
2022/12/07 13:29:49;;;;;;;19.52;11.00;;;;;;;;;;6079122;23;20017;-64
2022/12/07 13:32:24;;;;;;;21.45;10.63;;;;;;;;;;6144570;23;20017;-65
2022/12/07 13:34:50;;;;;;;22.63;10.73;;;;;;;;;;6144903;23;20052;-65
2022/12/07 13:37:16;;;;;;;21.13;12.45;;;;;;;;;;6144749;23;20067;-65
2022/12/07 13:39:53;;;;;;;22.77;12.20;;;;;;;;;;6144722;23;20464;-64
2022/12/07 13:42:26;;;;;;;17.70;9.15;;;;;;;;;;6144911;23;20014;-65
2022/12/07 13:44:52;;;;;;;15.27;9.55;;;;;;;;;;6144846;23;20068;-65
2022/12/07 13:47:18;;;;;;;12.60;7.95;;;;;;;;;;6172642;23;20023;-65
2022/12/07 13:49:55;;;;;;;15.90;8.35;;;;;;;;;;6236924;23;20111;-64
2022/12/07 13:52:25;;;;;;;14.75;8.95;;;;;;;;;;6236515;23;20397;-64
2022/12/07 13:55:02;;;;;;;13.88;8.90;;;;;;;;;;6236991;23;20039;-64
2022/12/07 13:57:30;;;;;;;13.77;8.15;;;;;;;;;;6238880;23;20036;-64
2022/12/07 13:59:56;;;;;;;16.75;9.15;;;;;;;;;;6238852;22;20004;-64
2022/12/07 14:02:22;;;;;;;13.60;8.50;;;;;;;;;;6238169;23;20031;-64
2022/12/07 14:04:50;;;;;;;14.80;8.75;;;;;;;;;;6239443;23;20008;-65
2022/12/07 14:07:24;;;;;;;16.92;9.30;;;;;;;;;;6238903;22;20008;-65
2022/12/07 14:09:54;;;;;;;16.58;10.20;;;;;;;;;;6239406;23;20392;-65
2022/12/07 14:12:21;;;;;;;15.32;9.48;;;;;;;;;;6239086;23;20016;-65
2022/12/07 14:14:48;;;;;;;15.23;8.15;;;;;;;;;;6238995;23;20008;-65
2022/12/07 14:17:19;;;;;;;12.52;7.35;;;;;;;;;;6238795;22;20004;-65
2022/12/07 14:19:52;;;;;;;15.13;8.30;;;;;;;;;;6239196;23;20085;-65
2022/12/07 14:22:29;;;;;;;16.85;8.32;;;;;;;;;;6239069;22;20737;-65
2022/12/07 14:24:59;;;;;;;13.18;7.90;;;;;;;;;;6239156;23;20278;-65
2022/12/07 14:27:30;;;;;;;12.93;8.18;;;;;;;;;;6239307;23;20062;-65
2022/12/07 14:29:57;;;;;;;12.50;7.75;;;;;;;;;;6239069;22;20079;-65
2022/12/07 14:32:28;;;;;;;16.90;8.52;;;;;;;;;;6239864;22;20039;-65